sensor_id;sensor_type;location;lat;lon;timestamp;temperature;humidity
48604;DHT22;32708;51.212;6.788;2023-02-19T00:01:34;11.10;99.90
48604;DHT22;32708;51.212;6.788;2023-02-19T00:04:06;11.10;99.90
48604;DHT22;32708;51.212;6.788;2023-02-19T00:06:34;11.10;99.90
48604;DHT22;32708;51.212;6.788;2023-02-19T00:09:01;11.00;99.90
48604;DHT22;32708;51.212;6.788;2023-02-19T00:11:30;11.40;99.90
48604;DHT22;32708;51.212;6.788;2023-02-19T00:13:58;11.10;99.90
48604;DHT22;32708;51.212;6.788;2023-02-19T00:16:31;11.10;99.90
48604;DHT22;32708;51.212;6.788;2023-02-19T00:18:59;11.10;99.90
48604;DHT22;32708;51.212;6.788;2023-02-19T00:21:26;11.10;99.90
48604;DHT22;32708;51.212;6.788;2023-02-19T00:23:55;11.10;99.90
48604;DHT22;32708;51.212;6.788;2023-02-19T00:26:22;11.30;99.90
48604;DHT22;32708;51.212;6.788;2023-02-19T00:28:49;11.20;99.90
48604;DHT22;32708;51.212;6.788;2023-02-19T00:31:25;11.50;99.90
48604;DHT22;32708;51.212;6.788;2023-02-19T00:33:54;11.10;99.90
48604;DHT22;32708;51.212;6.788;2023-02-19T00:36:20;11.00;99.90
48604;DHT22;32708;51.212;6.788;2023-02-19T00:38:47;11.00;99.90
48604;DHT22;32708;51.212;6.788;2023-02-19T00:41:15;11.00;99.90
48604;DHT22;32708;51.212;6.788;2023-02-19T00:46:17;11.00;99.90
48604;DHT22;32708;51.212;6.788;2023-02-19T00:48:44;11.00;99.90
48604;DHT22;32708;51.212;6.788;2023-02-19T00:51:11;11.00;99.90
48604;DHT22;32708;51.212;6.788;2023-02-19T00:53:37;10.90;99.90
48604;DHT22;32708;51.212;6.788;2023-02-19T00:56:04;11.00;99.90
48604;DHT22;32708;51.212;6.788;2023-02-19T00:58:30;11.00;99.90
48604;DHT22;32708;51.212;6.788;2023-02-19T01:00:56;10.90;99.90
48604;DHT22;32708;51.212;6.788;2023-02-19T01:03:23;11.20;99.90
48604;DHT22;32708;51.212;6.788;2023-02-19T01:05:51;10.90;99.90
48604;DHT22;32708;51.212;6.788;2023-02-19T01:08:18;11.00;99.90
48604;DHT22;32708;51.212;6.788;2023-02-19T01:10:45;11.00;99.90
48604;DHT22;32708;51.212;6.788;2023-02-19T01:13:12;11.00;99.90
48604;DHT22;32708;51.212;6.788;2023-02-19T01:15:38;11.00;99.90
48604;DHT22;32708;51.212;6.788;2023-02-19T01:18:04;11.10;99.90
48604;DHT22;32708;51.212;6.788;2023-02-19T01:20:30;11.00;99.90
48604;DHT22;32708;51.212;6.788;2023-02-19T01:22:56;11.10;99.90
48604;DHT22;32708;51.212;6.788;2023-02-19T01:25:22;11.10;99.90
48604;DHT22;32708;51.212;6.788;2023-02-19T01:27:48;11.40;99.90
48604;DHT22;32708;51.212;6.788;2023-02-19T01:30:16;11.10;99.90
48604;DHT22;32708;51.212;6.788;2023-02-19T01:32:43;11.00;99.90
48604;DHT22;32708;51.212;6.788;2023-02-19T01:35:10;11.10;99.90
48604;DHT22;32708;51.212;6.788;2023-02-19T01:37:35;11.10;99.90
48604;DHT22;32708;51.212;6.788;2023-02-19T01:40:02;11.20;99.90
48604;DHT22;32708;51.212;6.788;2023-02-19T01:42:28;11.20;99.90
48604;DHT22;32708;51.212;6.788;2023-02-19T01:48:01;11.10;99.90
48604;DHT22;32708;51.212;6.788;2023-02-19T01:50:31;11.10;99.90
48604;DHT22;32708;51.212;6.788;2023-02-19T01:53:03;11.10;99.90
48604;DHT22;32708;51.212;6.788;2023-02-19T01:55:32;11.10;99.90
48604;DHT22;32708;51.212;6.788;2023-02-19T01:58:01;11.10;99.90
48604;DHT22;32708;51.212;6.788;2023-02-19T02:00:28;11.20;99.90
48604;DHT22;32708;51.212;6.788;2023-02-19T02:02:57;11.10;99.90
48604;DHT22;32708;51.212;6.788;2023-02-19T02:05:47;11.10;99.90
48604;DHT22;32708;51.212;6.788;2023-02-19T02:08:16;11.10;99.90
48604;DHT22;32708;51.212;6.788;2023-02-19T02:11:01;11.10;99.90
48604;DHT22;32708;51.212;6.788;2023-02-19T02:13:28;11.00;99.90
48604;DHT22;32708;51.212;6.788;2023-02-19T02:16:15;11.00;99.90
48604;DHT22;32708;51.212;6.788;2023-02-19T02:24:23;10.90;99.90
48604;DHT22;32708;51.212;6.788;2023-02-19T02:30:00;10.90;99.90
48604;DHT22;32708;51.212;6.788;2023-02-19T02:32:37;10.90;99.90
48604;DHT22;32708;51.212;6.788;2023-02-19T02:35:08;10.90;99.90
48604;DHT22;32708;51.212;6.788;2023-02-19T02:37:41;11.00;99.90
48604;DHT22;32708;51.212;6.788;2023-02-19T02:40:11;10.80;99.90
48604;DHT22;32708;51.212;6.788;2023-02-19T02:42:39;10.80;99.90
48604;DHT22;32708;51.212;6.788;2023-02-19T02:45:21;11.10;99.90
48604;DHT22;32708;51.212;6.788;2023-02-19T02:51:22;10.90;99.90
48604;DHT22;32708;51.212;6.788;2023-02-19T02:56:49;10.90;99.90
48604;DHT22;32708;51.212;6.788;2023-02-19T02:59:24;10.90;99.90
48604;DHT22;32708;51.212;6.788;2023-02-19T03:02:08;10.90;99.90
48604;DHT22;32708;51.212;6.788;2023-02-19T03:04:52;11.00;99.90
48604;DHT22;32708;51.212;6.788;2023-02-19T03:08:03;11.00;99.90
48604;DHT22;32708;51.212;6.788;2023-02-19T03:10:42;11.00;99.90
48604;DHT22;32708;51.212;6.788;2023-02-19T03:13:29;11.10;99.90
48604;DHT22;32708;51.212;6.788;2023-02-19T03:16:21;11.10;99.90
48604;DHT22;32708;51.212;6.788;2023-02-19T03:19:13;11.10;99.90
48604;DHT22;32708;51.212;6.788;2023-02-19T03:22:06;11.00;99.90
48604;DHT22;32708;51.212;6.788;2023-02-19T03:24:55;11.00;99.90
48604;DHT22;32708;51.212;6.788;2023-02-19T03:27:42;11.10;99.90
48604;DHT22;32708;51.212;6.788;2023-02-19T03:30:15;11.10;99.90
48604;DHT22;32708;51.212;6.788;2023-02-19T03:32:52;11.00;99.90
48604;DHT22;32708;51.212;6.788;2023-02-19T03:35:27;11.00;99.90
48604;DHT22;32708;51.212;6.788;2023-02-19T03:38:14;11.30;99.90
48604;DHT22;32708;51.212;6.788;2023-02-19T03:40:58;10.90;99.90
48604;DHT22;32708;51.212;6.788;2023-02-19T03:43:38;10.80;99.90
48604;DHT22;32708;51.212;6.788;2023-02-19T03:46:19;10.90;99.90
48604;DHT22;32708;51.212;6.788;2023-02-19T03:48:58;10.90;99.90
48604;DHT22;32708;51.212;6.788;2023-02-19T03:51:35;10.90;99.90
48604;DHT22;32708;51.212;6.788;2023-02-19T03:57:06;11.00;99.90
48604;DHT22;32708;51.212;6.788;2023-02-19T03:59:47;11.00;99.90
48604;DHT22;32708;51.212;6.788;2023-02-19T04:02:23;10.90;99.90
48604;DHT22;32708;51.212;6.788;2023-02-19T04:05:10;11.00;99.90
48604;DHT22;32708;51.212;6.788;2023-02-19T04:07:45;10.90;99.90
48604;DHT22;32708;51.212;6.788;2023-02-19T04:10:16;11.00;99.90
48604;DHT22;32708;51.212;6.788;2023-02-19T04:12:55;10.80;99.90
48604;DHT22;32708;51.212;6.788;2023-02-19T04:15:29;10.90;99.90
48604;DHT22;32708;51.212;6.788;2023-02-19T04:18:03;11.10;99.90
48604;DHT22;32708;51.212;6.788;2023-02-19T04:20:36;10.90;99.90
48604;DHT22;32708;51.212;6.788;2023-02-19T04:23:04;10.90;99.90
48604;DHT22;32708;51.212;6.788;2023-02-19T04:25:32;10.90;99.90
48604;DHT22;32708;51.212;6.788;2023-02-19T04:28:00;11.00;99.90
48604;DHT22;32708;51.212;6.788;2023-02-19T04:30:27;11.20;99.90
48604;DHT22;32708;51.212;6.788;2023-02-19T04:32:53;10.90;99.90
48604;DHT22;32708;51.212;6.788;2023-02-19T04:35:19;10.80;99.90
48604;DHT22;32708;51.212;6.788;2023-02-19T04:37:45;10.80;99.90
48604;DHT22;32708;51.212;6.788;2023-02-19T04:40:11;10.90;99.90
48604;DHT22;32708;51.212;6.788;2023-02-19T04:42:37;10.90;99.90
48604;DHT22;32708;51.212;6.788;2023-02-19T04:45:03;10.90;99.90
48604;DHT22;32708;51.212;6.788;2023-02-19T04:47:31;10.90;99.90
48604;DHT22;32708;51.212;6.788;2023-02-19T04:49:57;11.00;99.90
48604;DHT22;32708;51.212;6.788;2023-02-19T04:52:23;10.90;99.90
48604;DHT22;32708;51.212;6.788;2023-02-19T04:54:49;10.80;99.90
48604;DHT22;32708;51.212;6.788;2023-02-19T04:57:15;11.10;99.90
48604;DHT22;32708;51.212;6.788;2023-02-19T04:59:41;10.80;99.90
48604;DHT22;32708;51.212;6.788;2023-02-19T05:02:07;10.80;99.90
48604;DHT22;32708;51.212;6.788;2023-02-19T05:04:33;10.80;99.90
48604;DHT22;32708;51.212;6.788;2023-02-19T05:06:59;10.90;99.90
48604;DHT22;32708;51.212;6.788;2023-02-19T05:09:25;10.90;99.90
48604;DHT22;32708;51.212;6.788;2023-02-19T05:11:51;10.90;99.90
48604;DHT22;32708;51.212;6.788;2023-02-19T05:14:17;11.20;99.90
48604;DHT22;32708;51.212;6.788;2023-02-19T05:16:43;10.80;99.90
48604;DHT22;32708;51.212;6.788;2023-02-19T05:19:12;10.80;99.90
48604;DHT22;32708;51.212;6.788;2023-02-19T05:21:38;10.80;99.90
48604;DHT22;32708;51.212;6.788;2023-02-19T05:24:06;11.10;99.90
48604;DHT22;32708;51.212;6.788;2023-02-19T05:26:33;11.00;99.90
48604;DHT22;32708;51.212;6.788;2023-02-19T05:28:59;10.80;99.90
48604;DHT22;32708;51.212;6.788;2023-02-19T05:31:25;10.80;99.90
48604;DHT22;32708;51.212;6.788;2023-02-19T05:33:53;11.20;99.90
48604;DHT22;32708;51.212;6.788;2023-02-19T05:36:20;10.90;99.90
48604;DHT22;32708;51.212;6.788;2023-02-19T05:38:48;10.80;99.90
48604;DHT22;32708;51.212;6.788;2023-02-19T05:41:19;10.80;99.90
48604;DHT22;32708;51.212;6.788;2023-02-19T05:43:47;11.20;99.90
48604;DHT22;32708;51.212;6.788;2023-02-19T05:46:16;10.90;99.90
48604;DHT22;32708;51.212;6.788;2023-02-19T05:48:45;10.90;99.90
48604;DHT22;32708;51.212;6.788;2023-02-19T05:51:14;10.90;99.90
48604;DHT22;32708;51.212;6.788;2023-02-19T05:53:42;10.80;99.90
48604;DHT22;32708;51.212;6.788;2023-02-19T05:56:33;10.80;99.90
48604;DHT22;32708;51.212;6.788;2023-02-19T05:59:38;10.70;99.90
48604;DHT22;32708;51.212;6.788;2023-02-19T06:01:57;10.70;99.90
48604;DHT22;32708;51.212;6.788;2023-02-19T06:04:23;10.70;99.90
48604;DHT22;32708;51.212;6.788;2023-02-19T06:06:49;10.60;99.90
48604;DHT22;32708;51.212;6.788;2023-02-19T06:09:16;10.70;99.90
48604;DHT22;32708;51.212;6.788;2023-02-19T06:11:42;10.70;99.90
48604;DHT22;32708;51.212;6.788;2023-02-19T06:14:11;10.70;99.90
48604;DHT22;32708;51.212;6.788;2023-02-19T06:16:39;10.70;99.90
48604;DHT22;32708;51.212;6.788;2023-02-19T06:19:05;10.60;99.90
48604;DHT22;32708;51.212;6.788;2023-02-19T06:21:31;10.70;99.90
48604;DHT22;32708;51.212;6.788;2023-02-19T06:23:57;10.50;99.90
48604;DHT22;32708;51.212;6.788;2023-02-19T06:26:24;10.50;99.90
48604;DHT22;32708;51.212;6.788;2023-02-19T06:28:51;10.50;99.90
48604;DHT22;32708;51.212;6.788;2023-02-19T06:31:19;10.50;99.90
48604;DHT22;32708;51.212;6.788;2023-02-19T06:33:46;10.50;99.90
48604;DHT22;32708;51.212;6.788;2023-02-19T06:36:18;10.50;99.90
48604;DHT22;32708;51.212;6.788;2023-02-19T06:38:47;10.40;99.90
48604;DHT22;32708;51.212;6.788;2023-02-19T06:41:13;10.30;99.90
48604;DHT22;32708;51.212;6.788;2023-02-19T06:43:40;10.40;99.90
48604;DHT22;32708;51.212;6.788;2023-02-19T06:46:07;10.40;99.90
48604;DHT22;32708;51.212;6.788;2023-02-19T06:48:33;10.30;99.90
48604;DHT22;32708;51.212;6.788;2023-02-19T06:51:00;10.30;99.90
48604;DHT22;32708;51.212;6.788;2023-02-19T06:53:26;10.40;99.90
48604;DHT22;32708;51.212;6.788;2023-02-19T06:56:01;10.40;99.90
48604;DHT22;32708;51.212;6.788;2023-02-19T06:58:28;10.40;99.90
48604;DHT22;32708;51.212;6.788;2023-02-19T07:00:54;10.80;99.90
48604;DHT22;32708;51.212;6.788;2023-02-19T07:03:21;10.50;99.90
48604;DHT22;32708;51.212;6.788;2023-02-19T07:05:48;10.50;99.90
48604;DHT22;32708;51.212;6.788;2023-02-19T07:08:14;10.40;99.90
48604;DHT22;32708;51.212;6.788;2023-02-19T07:10:52;10.30;99.90
48604;DHT22;32708;51.212;6.788;2023-02-19T07:13:19;10.40;99.90
48604;DHT22;32708;51.212;6.788;2023-02-19T07:15:45;10.30;99.90
48604;DHT22;32708;51.212;6.788;2023-02-19T07:18:11;10.30;99.90
48604;DHT22;32708;51.212;6.788;2023-02-19T07:20:37;10.40;99.90
48604;DHT22;32708;51.212;6.788;2023-02-19T07:23:03;10.40;99.90
48604;DHT22;32708;51.212;6.788;2023-02-19T07:25:29;10.40;99.90
48604;DHT22;32708;51.212;6.788;2023-02-19T07:27:55;10.50;99.90
48604;DHT22;32708;51.212;6.788;2023-02-19T07:30:21;10.50;99.90
48604;DHT22;32708;51.212;6.788;2023-02-19T07:32:47;10.50;99.90
48604;DHT22;32708;51.212;6.788;2023-02-19T07:35:13;10.50;99.90
48604;DHT22;32708;51.212;6.788;2023-02-19T07:37:40;10.50;99.90
48604;DHT22;32708;51.212;6.788;2023-02-19T07:40:06;10.60;99.90
48604;DHT22;32708;51.212;6.788;2023-02-19T07:42:32;10.50;99.90
48604;DHT22;32708;51.212;6.788;2023-02-19T07:44:59;10.90;99.90
48604;DHT22;32708;51.212;6.788;2023-02-19T07:47:25;10.60;99.90
48604;DHT22;32708;51.212;6.788;2023-02-19T07:49:50;10.50;99.90
48604;DHT22;32708;51.212;6.788;2023-02-19T07:52:16;10.70;99.90
48604;DHT22;32708;51.212;6.788;2023-02-19T07:54:42;10.60;99.90
48604;DHT22;32708;51.212;6.788;2023-02-19T07:57:08;10.50;99.90
48604;DHT22;32708;51.212;6.788;2023-02-19T07:59:34;10.60;99.90
48604;DHT22;32708;51.212;6.788;2023-02-19T08:02:00;10.50;99.90
48604;DHT22;32708;51.212;6.788;2023-02-19T08:04:48;10.60;99.90
48604;DHT22;32708;51.212;6.788;2023-02-19T08:07:14;10.50;99.90
48604;DHT22;32708;51.212;6.788;2023-02-19T08:09:40;10.40;99.90
48604;DHT22;32708;51.212;6.788;2023-02-19T08:12:10;10.40;99.90
48604;DHT22;32708;51.212;6.788;2023-02-19T08:14:54;10.50;99.90
48604;DHT22;32708;51.212;6.788;2023-02-19T08:17:20;10.50;99.90
48604;DHT22;32708;51.212;6.788;2023-02-19T08:19:46;10.60;99.90
48604;DHT22;32708;51.212;6.788;2023-02-19T08:22:12;10.60;99.90
48604;DHT22;32708;51.212;6.788;2023-02-19T08:24:40;10.60;99.90
48604;DHT22;32708;51.212;6.788;2023-02-19T08:27:07;10.60;99.90
48604;DHT22;32708;51.212;6.788;2023-02-19T08:29:33;10.70;99.90
48604;DHT22;32708;51.212;6.788;2023-02-19T08:31:59;10.90;99.90
48604;DHT22;32708;51.212;6.788;2023-02-19T08:34:25;10.70;99.90
48604;DHT22;32708;51.212;6.788;2023-02-19T08:36:51;10.70;99.90
48604;DHT22;32708;51.212;6.788;2023-02-19T08:39:18;10.70;99.90
48604;DHT22;32708;51.212;6.788;2023-02-19T08:41:43;10.70;99.90
48604;DHT22;32708;51.212;6.788;2023-02-19T08:44:10;10.80;99.90
48604;DHT22;32708;51.212;6.788;2023-02-19T08:46:35;10.70;99.90
48604;DHT22;32708;51.212;6.788;2023-02-19T08:49:02;10.70;99.90
48604;DHT22;32708;51.212;6.788;2023-02-19T08:51:28;10.80;99.90
48604;DHT22;32708;51.212;6.788;2023-02-19T08:53:57;10.90;99.90
48604;DHT22;32708;51.212;6.788;2023-02-19T08:56:23;11.00;99.90
48604;DHT22;32708;51.212;6.788;2023-02-19T08:58:50;11.00;99.90
48604;DHT22;32708;51.212;6.788;2023-02-19T09:01:16;11.00;99.90
48604;DHT22;32708;51.212;6.788;2023-02-19T09:03:45;11.00;99.90
48604;DHT22;32708;51.212;6.788;2023-02-19T09:06:17;11.10;99.90
48604;DHT22;32708;51.212;6.788;2023-02-19T09:08:44;11.10;99.90
48604;DHT22;32708;51.212;6.788;2023-02-19T09:11:11;11.00;99.90
48604;DHT22;32708;51.212;6.788;2023-02-19T09:13:37;10.90;99.90
48604;DHT22;32708;51.212;6.788;2023-02-19T09:16:07;10.90;99.90
48604;DHT22;32708;51.212;6.788;2023-02-19T09:18:33;11.00;99.90
48604;DHT22;32708;51.212;6.788;2023-02-19T09:21:04;11.20;99.90
48604;DHT22;32708;51.212;6.788;2023-02-19T09:23:35;11.00;99.90
48604;DHT22;32708;51.212;6.788;2023-02-19T09:26:02;10.90;99.90
48604;DHT22;32708;51.212;6.788;2023-02-19T09:28:31;11.00;99.90
48604;DHT22;32708;51.212;6.788;2023-02-19T09:31:05;11.00;99.90
48604;DHT22;32708;51.212;6.788;2023-02-19T09:33:32;11.00;99.90
48604;DHT22;32708;51.212;6.788;2023-02-19T09:35:59;11.40;99.90
48604;DHT22;32708;51.212;6.788;2023-02-19T09:38:26;11.00;99.90
48604;DHT22;32708;51.212;6.788;2023-02-19T09:40:52;11.30;99.90
48604;DHT22;32708;51.212;6.788;2023-02-19T09:43:21;11.40;99.90
48604;DHT22;32708;51.212;6.788;2023-02-19T09:45:55;11.10;99.90
48604;DHT22;32708;51.212;6.788;2023-02-19T09:48:24;11.00;99.90
48604;DHT22;32708;51.212;6.788;2023-02-19T09:50:50;10.90;99.90
48604;DHT22;32708;51.212;6.788;2023-02-19T09:53:23;10.70;99.90
48604;DHT22;32708;51.212;6.788;2023-02-19T09:55:51;10.60;99.90
48604;DHT22;32708;51.212;6.788;2023-02-19T09:58:29;10.60;99.90
48604;DHT22;32708;51.212;6.788;2023-02-19T10:01:00;10.50;99.90
48604;DHT22;32708;51.212;6.788;2023-02-19T10:03:47;10.50;99.90
48604;DHT22;32708;51.212;6.788;2023-02-19T10:06:20;10.50;99.90
48604;DHT22;32708;51.212;6.788;2023-02-19T10:08:51;10.50;99.90
48604;DHT22;32708;51.212;6.788;2023-02-19T10:11:17;10.60;99.90
48604;DHT22;32708;51.212;6.788;2023-02-19T10:16:27;10.90;99.90
48604;DHT22;32708;51.212;6.788;2023-02-19T10:18:54;11.00;99.90
48604;DHT22;32708;51.212;6.788;2023-02-19T10:21:24;11.10;99.90
48604;DHT22;32708;51.212;6.788;2023-02-19T10:24:00;11.10;99.90
48604;DHT22;32708;51.212;6.788;2023-02-19T10:26:27;10.90;99.90
48604;DHT22;32708;51.212;6.788;2023-02-19T10:28:56;11.00;99.90
48604;DHT22;32708;51.212;6.788;2023-02-19T10:31:24;11.00;99.90
48604;DHT22;32708;51.212;6.788;2023-02-19T10:33:56;11.10;99.90
48604;DHT22;32708;51.212;6.788;2023-02-19T10:36:38;11.30;99.90
48604;DHT22;32708;51.212;6.788;2023-02-19T10:39:37;11.40;99.90
48604;DHT22;32708;51.212;6.788;2023-02-19T10:42:04;11.40;99.90
48604;DHT22;32708;51.212;6.788;2023-02-19T10:44:41;11.40;99.90
48604;DHT22;32708;51.212;6.788;2023-02-19T10:47:21;11.40;99.90
48604;DHT22;32708;51.212;6.788;2023-02-19T10:49:50;11.40;99.90
48604;DHT22;32708;51.212;6.788;2023-02-19T10:52:27;11.30;99.90
48604;DHT22;32708;51.212;6.788;2023-02-19T10:57:38;11.00;99.90
48604;DHT22;32708;51.212;6.788;2023-02-19T11:02:43;10.90;99.90
48604;DHT22;32708;51.212;6.788;2023-02-19T11:07:50;10.90;99.90
48604;DHT22;32708;51.212;6.788;2023-02-19T11:10:35;11.10;99.90
48604;DHT22;32708;51.212;6.788;2023-02-19T11:13:06;11.00;99.90
48604;DHT22;32708;51.212;6.788;2023-02-19T11:15:36;10.90;99.90
48604;DHT22;32708;51.212;6.788;2023-02-19T11:20:57;10.90;99.90
48604;DHT22;32708;51.212;6.788;2023-02-19T11:25:55;10.60;99.90
48604;DHT22;32708;51.212;6.788;2023-02-19T11:28:38;10.70;99.90
48604;DHT22;32708;51.212;6.788;2023-02-19T11:33:56;10.50;99.90
48604;DHT22;32708;51.212;6.788;2023-02-19T11:38:48;10.40;99.90
48604;DHT22;32708;51.212;6.788;2023-02-19T11:44:11;10.60;99.90
48604;DHT22;32708;51.212;6.788;2023-02-19T12:07:22;10.70;99.90
48604;DHT22;32708;51.212;6.788;2023-02-19T12:13:11;10.80;99.90
48604;DHT22;32708;51.212;6.788;2023-02-19T12:18:34;10.90;99.90
48604;DHT22;32708;51.212;6.788;2023-02-19T12:21:17;11.00;99.90
48604;DHT22;32708;51.212;6.788;2023-02-19T12:26:42;11.30;99.90
48604;DHT22;32708;51.212;6.788;2023-02-19T12:41:17;11.50;99.90
48604;DHT22;32708;51.212;6.788;2023-02-19T12:43:55;11.40;99.90
48604;DHT22;32708;51.212;6.788;2023-02-19T12:46:33;11.40;99.90
48604;DHT22;32708;51.212;6.788;2023-02-19T12:51:57;11.50;99.90
48604;DHT22;32708;51.212;6.788;2023-02-19T12:54:45;11.50;99.90
48604;DHT22;32708;51.212;6.788;2023-02-19T12:57:29;11.50;99.90
48604;DHT22;32708;51.212;6.788;2023-02-19T13:02:53;11.60;99.90
48604;DHT22;32708;51.212;6.788;2023-02-19T13:05:44;11.50;99.90
48604;DHT22;32708;51.212;6.788;2023-02-19T13:11:19;11.50;99.90
48604;DHT22;32708;51.212;6.788;2023-02-19T13:13:56;11.50;99.90
48604;DHT22;32708;51.212;6.788;2023-02-19T13:16:27;11.50;99.90
48604;DHT22;32708;51.212;6.788;2023-02-19T13:19:02;11.40;99.90
48604;DHT22;32708;51.212;6.788;2023-02-19T13:21:35;11.40;99.90
48604;DHT22;32708;51.212;6.788;2023-02-19T13:24:25;11.40;99.90
48604;DHT22;32708;51.212;6.788;2023-02-19T13:27:21;11.40;99.90
48604;DHT22;32708;51.212;6.788;2023-02-19T13:33:02;11.40;99.90
48604;DHT22;32708;51.212;6.788;2023-02-19T13:38:10;11.50;99.90
48604;DHT22;32708;51.212;6.788;2023-02-19T13:40:54;11.50;99.90
48604;DHT22;32708;51.212;6.788;2023-02-19T13:43:27;11.40;99.90
48604;DHT22;32708;51.212;6.788;2023-02-19T13:46:01;11.40;99.90
48604;DHT22;32708;51.212;6.788;2023-02-19T13:48:32;11.30;99.90
48604;DHT22;32708;51.212;6.788;2023-02-19T14:14:42;11.80;99.90
48604;DHT22;32708;51.212;6.788;2023-02-19T14:25:42;11.50;99.90
48604;DHT22;32708;51.212;6.788;2023-02-19T14:33:23;11.80;99.90
48604;DHT22;32708;51.212;6.788;2023-02-19T14:36:04;11.70;99.90
48604;DHT22;32708;51.212;6.788;2023-02-19T14:38:49;11.50;99.90
48604;DHT22;32708;51.212;6.788;2023-02-19T14:41:17;11.20;99.90
48604;DHT22;32708;51.212;6.788;2023-02-19T14:43:48;11.20;99.90
48604;DHT22;32708;51.212;6.788;2023-02-19T14:46:31;10.90;99.90
48604;DHT22;32708;51.212;6.788;2023-02-19T14:49:15;11.00;99.90
48604;DHT22;32708;51.212;6.788;2023-02-19T14:51:49;10.90;99.90
48604;DHT22;32708;51.212;6.788;2023-02-19T14:54:28;10.90;99.90
48604;DHT22;32708;51.212;6.788;2023-02-19T14:57:01;11.00;99.90
48604;DHT22;32708;51.212;6.788;2023-02-19T14:59:29;10.90;99.90
48604;DHT22;32708;51.212;6.788;2023-02-19T15:02:15;10.90;99.90
48604;DHT22;32708;51.212;6.788;2023-02-19T15:04:42;10.90;99.90
48604;DHT22;32708;51.212;6.788;2023-02-19T15:07:14;11.00;99.90
48604;DHT22;32708;51.212;6.788;2023-02-19T15:09:48;11.00;99.90
48604;DHT22;32708;51.212;6.788;2023-02-19T15:12:20;11.00;99.90
48604;DHT22;32708;51.212;6.788;2023-02-19T15:14:54;10.90;99.90
48604;DHT22;32708;51.212;6.788;2023-02-19T15:17:26;10.90;99.90
48604;DHT22;32708;51.212;6.788;2023-02-19T15:19:55;11.00;99.90
48604;DHT22;32708;51.212;6.788;2023-02-19T15:22:25;10.90;99.90
48604;DHT22;32708;51.212;6.788;2023-02-19T15:24:54;11.00;99.90
48604;DHT22;32708;51.212;6.788;2023-02-19T15:27:22;10.90;99.90
48604;DHT22;32708;51.212;6.788;2023-02-19T15:29:51;10.80;99.90
48604;DHT22;32708;51.212;6.788;2023-02-19T15:32:24;10.90;99.90
48604;DHT22;32708;51.212;6.788;2023-02-19T15:34:55;10.90;99.90
48604;DHT22;32708;51.212;6.788;2023-02-19T15:37:28;10.90;99.90
48604;DHT22;32708;51.212;6.788;2023-02-19T15:39:58;10.80;99.90
48604;DHT22;32708;51.212;6.788;2023-02-19T15:42:31;10.70;99.90
48604;DHT22;32708;51.212;6.788;2023-02-19T15:45:08;10.70;99.90
48604;DHT22;32708;51.212;6.788;2023-02-19T15:47:58;10.60;99.90
48604;DHT22;32708;51.212;6.788;2023-02-19T15:50:29;10.70;99.90
48604;DHT22;32708;51.212;6.788;2023-02-19T15:55:57;10.50;99.90
48604;DHT22;32708;51.212;6.788;2023-02-19T15:58:40;10.50;99.90
48604;DHT22;32708;51.212;6.788;2023-02-19T16:01:19;10.50;99.90
48604;DHT22;32708;51.212;6.788;2023-02-19T16:03:46;10.40;99.90
48604;DHT22;32708;51.212;6.788;2023-02-19T16:06:15;10.40;99.90
48604;DHT22;32708;51.212;6.788;2023-02-19T16:08:45;10.50;99.90
48604;DHT22;32708;51.212;6.788;2023-02-19T16:13:51;10.50;99.90
48604;DHT22;32708;51.212;6.788;2023-02-19T16:16:50;10.50;99.90
48604;DHT22;32708;51.212;6.788;2023-02-19T16:19:10;10.50;99.90
48604;DHT22;32708;51.212;6.788;2023-02-19T16:21:36;10.50;99.90
48604;DHT22;32708;51.212;6.788;2023-02-19T16:24:13;10.40;99.90
48604;DHT22;32708;51.212;6.788;2023-02-19T16:26:40;10.40;99.90
48604;DHT22;32708;51.212;6.788;2023-02-19T16:29:29;10.40;99.90
48604;DHT22;32708;51.212;6.788;2023-02-19T16:32:02;10.50;99.90
48604;DHT22;32708;51.212;6.788;2023-02-19T16:34:46;10.40;99.90
48604;DHT22;32708;51.212;6.788;2023-02-19T16:37:32;10.50;99.90
48604;DHT22;32708;51.212;6.788;2023-02-19T16:42:35;10.50;99.90
48604;DHT22;32708;51.212;6.788;2023-02-19T16:45:03;10.80;99.90
48604;DHT22;32708;51.212;6.788;2023-02-19T16:47:31;10.30;99.90
48604;DHT22;32708;51.212;6.788;2023-02-19T16:50:01;10.40;99.90
48604;DHT22;32708;51.212;6.788;2023-02-19T16:52:28;10.30;99.90
48604;DHT22;32708;51.212;6.788;2023-02-19T16:54:54;10.20;99.90
48604;DHT22;32708;51.212;6.788;2023-02-19T16:57:20;10.20;99.90
48604;DHT22;32708;51.212;6.788;2023-02-19T16:59:47;10.10;99.90
48604;DHT22;32708;51.212;6.788;2023-02-19T17:02:20;10.10;99.90
48604;DHT22;32708;51.212;6.788;2023-02-19T17:04:51;10.30;99.90
48604;DHT22;32708;51.212;6.788;2023-02-19T17:07:20;10.20;99.90
48604;DHT22;32708;51.212;6.788;2023-02-19T17:09:47;10.20;99.90
48604;DHT22;32708;51.212;6.788;2023-02-19T17:12:16;10.20;99.90
48604;DHT22;32708;51.212;6.788;2023-02-19T17:14:42;10.20;99.90
48604;DHT22;32708;51.212;6.788;2023-02-19T17:17:11;10.10;99.90
48604;DHT22;32708;51.212;6.788;2023-02-19T17:19:37;10.00;99.90
48604;DHT22;32708;51.212;6.788;2023-02-19T17:22:04;10.10;99.90
48604;DHT22;32708;51.212;6.788;2023-02-19T17:24:30;10.50;99.90
48604;DHT22;32708;51.212;6.788;2023-02-19T17:26:56;9.90;99.90
48604;DHT22;32708;51.212;6.788;2023-02-19T17:29:22;10.00;99.90
48604;DHT22;32708;51.212;6.788;2023-02-19T17:31:49;10.00;99.90
48604;DHT22;32708;51.212;6.788;2023-02-19T17:34:16;10.00;99.90
48604;DHT22;32708;51.212;6.788;2023-02-19T17:36:42;10.00;99.90
48604;DHT22;32708;51.212;6.788;2023-02-19T17:39:13;10.00;99.90
48604;DHT22;32708;51.212;6.788;2023-02-19T17:41:43;10.00;99.90
48604;DHT22;32708;51.212;6.788;2023-02-19T17:44:09;9.90;99.90
48604;DHT22;32708;51.212;6.788;2023-02-19T17:46:37;9.90;99.90
48604;DHT22;32708;51.212;6.788;2023-02-19T17:49:03;9.90;99.90
48604;DHT22;32708;51.212;6.788;2023-02-19T17:51:29;9.90;99.90
48604;DHT22;32708;51.212;6.788;2023-02-19T17:53:55;9.90;99.90
48604;DHT22;32708;51.212;6.788;2023-02-19T17:56:24;9.80;99.90
48604;DHT22;32708;51.212;6.788;2023-02-19T17:58:51;9.70;99.90
48604;DHT22;32708;51.212;6.788;2023-02-19T18:01:17;9.80;99.90
48604;DHT22;32708;51.212;6.788;2023-02-19T18:03:43;9.70;99.90
48604;DHT22;32708;51.212;6.788;2023-02-19T18:06:09;9.70;99.90
48604;DHT22;32708;51.212;6.788;2023-02-19T18:08:36;10.20;99.90
48604;DHT22;32708;51.212;6.788;2023-02-19T18:11:03;9.80;99.90
48604;DHT22;32708;51.212;6.788;2023-02-19T18:13:29;9.70;99.90
48604;DHT22;32708;51.212;6.788;2023-02-19T18:15:55;9.70;99.90
48604;DHT22;32708;51.212;6.788;2023-02-19T18:18:21;9.70;99.90
48604;DHT22;32708;51.212;6.788;2023-02-19T18:20:48;9.60;99.90
48604;DHT22;32708;51.212;6.788;2023-02-19T18:23:15;9.60;99.90
48604;DHT22;32708;51.212;6.788;2023-02-19T18:25:41;9.50;99.90